Terminal Aerodrome Forecast
Issued by NWS Cleveland, OH

Home | Current Version | Previous Version | Text Only | Print | Product List | Glossary On
Versions: 1 2 3 4 5 6 7 8 9 10 11 12
000
FTUS41 KCLE 252300
TAFYNG
TAF
KYNG 252330Z 2600/2624 21012G20KT P6SM SCT050
     FM260200 20008KT P6SM BKN150
     FM261000 20006KT 5SM BR VCSH OVC025
     FM261400 20010KT 6SM HZ BKN035
     FM262000 19012G20KT 6SM -SHRA OVC050=

USA.gov is the U.S. government's official web portal to all federal, state and local government web resources and services.